Norris Rancho Marino Reserve, California Weather observations

Data are for 10 minute period ending at time listed.
 Day   Time   Solar   Ave.   Ave.  Ave.  Vector  Max.   Baro.   Total    
  of    of     Rad.   Air    Rel.  Wind   Wind   Wind  Press.  Precip.   
Year   Day            Temp.  Hum.  Speed  Dir.   Gust                    
2016   (PST)  Kw/m2    F      %     mph   deg.    mph    mb.     in.     
-------------------------------------------------------------------------
  44    7:20   0.03   54.3    97    2.3   322     4.3   1018.6    0.00 
  44    7:30   0.05   54.2    97    1.3    42     2.8   1018.6    0.00 
  44    7:40   0.05   53.7    97    0.8   104     2.9   1018.6    0.00 
  44    7:50   0.05   53.7    97    1.0    46     3.1   1018.8    0.00 
  44    8:00   0.08   54.2    97    2.4   194     5.6   1018.7    0.00 
  44    8:10   0.06   54.0    97    1.9   233     4.6   1019.1    0.00 
  44    8:20   0.07   53.8    98    2.4   213     4.3   1019.2    0.00 
  44    8:30   0.10   53.8    98    3.3   153     5.3   1019.1    0.00 
  44    8:40   0.13   54.0    98    2.2   182     4.0   1019.2    0.00 
  44    8:50   0.15   54.1    98    1.6   192     3.8   1019.4    0.00 
  44    9:00   0.16   54.1    98    2.4   168     3.8   1019.5    0.00 
  44    9:10   0.20   54.4    98    3.2   185     5.0   1019.5    0.00 
  44    9:20   0.20   54.2    98    2.9   188     5.3   1019.5    0.00 
  44    9:30   0.21   54.0    98    2.6   210     5.0   1019.5    0.00 
  44    9:40   0.25   54.1    98    0.8   232     2.9   1019.6    0.00 
  44    9:50   0.23   54.1    98    4.1   287     6.3   1019.6    0.00 
  44   10:00   0.30   54.5    98    3.3   312     6.2   1019.6    0.00 
  44   10:10   0.41   54.9    98    4.1   285     6.9   1019.5    0.00 
  44   10:20   0.42   55.6    98    4.6   288     6.4   1019.5    0.00 
  44   10:30   0.46   55.8    98    6.6   300     9.1   1019.4    0.00 
  44   10:40   0.46   55.8    98    5.7   283     8.5   1019.5    0.00 
  44   10:50   0.54   55.8    98    6.5   286    10.2   1019.5    0.00 
  44   11:00   0.58   56.2    98    4.7   272     8.0   1019.1    0.00 
  44   11:10   0.59   56.3    98    5.6   271     8.3   1019.0    0.00 
  44   11:20   0.59   55.9    98    6.0   281     8.0   1018.9    0.00 
  44   11:30   0.65   56.2    98    4.1   276     5.9   1018.7    0.00 
  44   11:40   0.67   56.7    98    5.3   278     7.9   1018.6    0.00 
  44   11:50   0.65   56.1    97    6.3   274     8.5   1018.5    0.00 
  44   12:00   0.54   56.0    97    7.3   281    10.8   1018.8    0.00 
  44   12:10   0.41   55.5    98    8.6   291    10.9   1018.9    0.00 
  44   12:20   0.40   55.3    98    8.0   295    12.2   1019.0    0.00 
  44   12:30   0.47   56.3    98    9.0   290    14.7   1019.0    0.00 
  44   12:40   0.50   56.5    97    9.3   292    14.8   1018.8    0.00 
  44   12:50   0.49   56.8    97    9.2   289    12.2   1018.5    0.00 
  44   13:00   0.61   57.1    96    9.2   284    11.9   1018.3    0.00 
  44   13:10   0.69   57.4    95    8.3   287    10.6   1018.3    0.00 
  44   13:20   0.66   57.8    94    8.1   288    10.7   1018.4    0.00 
  44   13:30   0.66   58.2    94    7.2   282     9.3   1018.3    0.00 
  44   13:40   0.65   58.6    93    5.8   283     8.3   1018.1    0.00 
  44   13:50   0.63   58.6    93    6.8   273     8.4   1018.0    0.00 
  44   14:00   0.61   58.2    93    7.3   278     9.1   1018.0    0.00 
  44   14:10   0.60   57.8    94    7.2   276     8.7   1017.9    0.00 
  44   14:20   0.58   58.2    93    6.5   281     8.9   1018.0    0.00 
  44   14:30   0.56   58.4    92    7.6   287     9.3   1017.9    0.00 
  44   14:40   0.54   58.6    92    8.5   286    11.2   1017.8    0.00 
  44   14:50   0.52   58.5    91   10.2   289    13.4   1017.8    0.00 
  44   15:00   0.49   58.3    91    9.0   288    10.8   1017.9    0.00 
  44   15:10   0.46   58.5    90    8.3   288    11.0   1017.9    0.00 
  44   15:20   0.43   59.3    89    6.6   281     8.2   1017.6    0.00 
  44   15:30   0.41   59.1    89    6.4   284     9.4   1017.5    0.00 
  44   15:40   0.38   59.1    88    6.5   282     8.6   1017.5    0.00 
  44   15:50   0.35   59.1    88    5.9   285     8.1   1017.5    0.00 
  44   16:00   0.32   59.8    86    3.2   283     5.8   1017.3    0.00 
  44   16:10   0.29   60.3    84    3.5   282     5.3   1017.0    0.00 
  44   16:20   0.26   59.3    86    7.1   287     9.1   1017.0    0.00 
  44   16:30   0.21   58.7    88    6.5   278     8.5   1017.2    0.00 
  44   16:40   0.09   55.6    93    7.7   287    10.3   1017.5    0.00 
  44   16:50   0.13   54.7    96    6.8   290     8.6   1017.7    0.00 
  44   17:00   0.14   55.4    96    5.9   304     7.5   1017.8    0.00 
  44   17:10   0.10   55.6    96    5.4   291     6.9   1017.8    0.00 
  44   17:20   0.08   55.8    96    7.5   293    10.7   1017.8    0.00 
  44   17:30   0.05   55.9    95    8.4   309    10.5   1018.0    0.00 
  44   17:40   0.02   55.9    95    6.5   319     9.9   1018.0    0.00 
  44   17:50   0.01   56.3    92    5.7   327     7.3   1017.9    0.00 
  44   18:00   0.01   56.4    89    5.8   326     7.9   1017.9    0.00 
  44   18:10   0.00   55.7    90    3.2     7     4.8   1018.0    0.00 
  44   18:20   0.00   56.1    89    5.6   347     8.4   1018.1    0.00 
  44   18:30   0.00   56.8    85    5.7     4     8.1   1018.1    0.00 
  44   18:40   0.00   56.8    84    3.8   354     6.2   1018.3    0.00 
  44   18:50   0.00   56.0    86    3.3   318     5.3   1018.4    0.00 
  44   19:00   0.00   55.1    88    1.7   303     4.2   1018.4    0.00 
  44   19:10   0.00   54.8    88    1.2    52     2.3   1018.4    0.00 
  44   19:20   0.00   54.6    88    1.4   106     3.0   1018.3    0.00 
  44   19:30   0.00   54.5    89    2.0    90     3.4   1018.2    0.00 
  44   19:40   0.00   53.8    89    4.2    50     5.4   1018.2    0.00 
  44   19:50   0.00   53.4    90    3.2   287     5.6   1018.6    0.00 
  44   20:00   0.00   54.0    92    2.6     8     4.5   1018.7    0.00 
  44   20:10   0.00   55.0    92    3.5   336     6.5   1018.8    0.00 
  44   20:20   0.00   55.1    93    3.1   346     5.0   1018.9    0.00 
  44   20:30   0.00   54.5    93    2.0     7     3.2   1018.9    0.00 
  44   20:40   0.00   53.5    93    2.4   320     4.3   1019.1    0.00 
  44   20:50   0.00   53.5    94    2.3   348     3.9   1019.3    0.00 
  44   21:00   0.00   53.4    94    1.8    28     2.6   1019.4    0.00 
  44   21:10   0.00   53.1    94    2.3    51     4.1   1019.4    0.00 
  44   21:20   0.00   52.7    94    2.1    33     4.0   1019.4    0.00 
  44   21:30   0.00   52.4    94    2.5    74     4.2   1019.4    0.00 
  44   21:40   0.00   53.0    92    3.2    94     5.6   1019.3    0.00 
  44   21:50   0.00   53.7    88    4.3    69     6.7   1019.2    0.00 
  44   22:00   0.00   54.1    88    3.6    75     6.3   1019.4    0.00 
  44   22:10   0.00   54.1    84    2.1    59     6.4   1019.5    0.00 
  44   22:20   0.00   54.5    86    3.1    81     5.3   1019.5    0.00 
  44   22:30   0.00   54.2    86    2.5    21     6.8   1019.6    0.00 
  44   22:40   0.00   54.5    86    2.2    68     4.1   1019.4    0.00 
  44   22:50   0.00   53.4    87    3.8   318     7.0   1019.4    0.00 
  44   23:00   0.00   53.6    91    2.6   349     5.2   1019.6    0.00 
  44   23:10   0.00   53.9    90    2.1    24     3.7   1019.6    0.00 
  44   23:20   0.00   53.3    90    2.0     6     4.0   1019.6    0.00 
  44   23:30   0.00   53.0    91    1.7    16     3.7   1019.7    0.00 
  44   23:40   0.00   52.8    91    1.3    40     3.2   1019.7    0.00 
  44   23:50   0.00   52.5    91    3.3    46     5.6   1019.7    0.00 
  45    0:00   0.00   52.3    90    2.5    71     5.7   1019.6    0.00 
  45    0:10   0.00   52.6    90    2.4    69     4.8   1019.5    0.00 
  45    0:20   0.00   52.7    90    2.1    28     4.7   1019.5    0.00 
  45    0:30   0.00   53.7    89    2.3    53     3.9   1019.5    0.00 
  45    0:40   0.00   53.0    89    2.2    46     3.4   1019.6    0.00 
  45    0:50   0.00   52.6    90    2.5   323     4.3   1019.8    0.00 
  45    1:00   0.00   53.5    91    3.3   342     4.8   1019.9    0.00 
  45    1:10   0.00   53.2    91    2.2    23     4.7   1019.7    0.00 
  45    1:20   0.00   53.5    91    4.1   350     7.9   1019.5    0.00 
  45    1:30   0.00   53.7    89    4.6   359     8.5   1019.5    0.00 
  45    1:40   0.00   52.8    89    3.2    34     6.9   1019.5    0.00 
  45    1:50   0.00   52.0    89    1.8    47     3.8   1019.5    0.00 
  45    2:00   0.00   52.1    89    1.2    36     2.9   1019.4    0.00 
  45    2:10   0.00   52.5    88    1.8    26     3.7   1019.4    0.00 
  45    2:20   0.00   52.1    88    2.8    57     5.3   1019.3    0.00 
  45    2:30   0.00   51.6    88    2.9    37     5.1   1019.2    0.00 
  45    2:40   0.00   52.2    87    2.4    73     5.0   1019.1    0.00 
  45    2:50   0.00   51.8    86    2.5    37     5.3   1019.0    0.00 
  45    3:00   0.00   51.8    85    2.0     2     5.8   1018.9    0.00 
  45    3:10   0.00   51.6    84    2.2   124     5.1   1018.7    0.00 
  45    3:20   0.00   52.3    85    1.2    10     3.2   1018.5    0.00 
  45    3:30   0.00   52.2    84    1.9   108     3.6   1018.3    0.00 
  45    3:40   0.00   51.6    88    3.2    71     8.0   1018.2    0.00 
  45    3:50   0.00   52.6    88    2.1    62     4.3   1018.1    0.00 
  45    4:00   0.00   52.2    89    2.7   140     6.7   1018.2    0.00 
  45    4:10   0.00   52.3    91    1.9    27     3.9   1018.4    0.00 
  45    4:20   0.00   52.3    91    2.6    74     4.9   1018.3    0.00 
  45    4:30   0.00   52.4    90    2.3    80     3.8   1018.4    0.00 
  45    4:40   0.00   52.4    90    3.7    74     5.2   1018.3    0.00 
  45    4:50   0.00   52.4    91    2.9    75     4.5   1018.3    0.00 
  45    5:00   0.00   52.4    91    2.6    76     4.5   1018.4    0.00 
  45    5:10   0.00   52.3    91    3.1    67     4.5   1018.7    0.00 
  45    5:20   0.00   52.2    91    4.1    73     5.4   1018.6    0.00 
  45    5:30   0.00   52.1    90    3.8    76     5.6   1018.6    0.00 
  45    5:40   0.00   52.1    90    2.5   112     4.8   1018.8    0.00 
  45    5:50   0.00   52.3    90    2.2    82     5.0   1018.9    0.00 
  45    6:00   0.00   52.1    89    2.1    78     3.3   1019.0    0.00 
  45    6:10   0.00   52.1    88    2.7    91     4.0   1019.0    0.00 
  45    6:20   0.00   51.8    87    1.9    46     3.6   1019.2    0.00 
  45    6:30   0.00   51.4    86    3.0    74     4.0   1019.3    0.00 
  45    6:40   0.00   51.6    87    2.1    70     3.8   1019.4    0.00 
  45    6:50   0.00   51.8    87    2.4    81     3.5   1019.3    0.00 
  45    7:00   0.01   52.2    84    3.5    92     4.4   1019.1    0.00 
  45    7:10   0.02   52.0    84    2.7    98     3.9   1019.0    0.00 

Return to Norris Rancho Marino Reserve graphs page.


Western Regional Climate Center,wrcc@dri.edu